sensor_id;sensor_type;location;lat;lon;timestamp;temperature;humidity
8372;DHT22;4223;48.724;8.982;2022-11-20T00:01:20;3.60;99.90
8372;DHT22;4223;48.724;8.982;2022-11-20T00:03:47;3.60;99.90
8372;DHT22;4223;48.724;8.982;2022-11-20T00:06:16;3.50;99.90
8372;DHT22;4223;48.724;8.982;2022-11-20T00:08:43;3.50;99.90
8372;DHT22;4223;48.724;8.982;2022-11-20T00:11:13;3.50;99.90
8372;DHT22;4223;48.724;8.982;2022-11-20T00:13:41;3.50;99.90
8372;DHT22;4223;48.724;8.982;2022-11-20T00:16:10;3.50;99.90
8372;DHT22;4223;48.724;8.982;2022-11-20T00:18:37;3.50;99.90
8372;DHT22;4223;48.724;8.982;2022-11-20T00:21:06;3.50;99.90
8372;DHT22;4223;48.724;8.982;2022-11-20T00:23:33;3.50;99.90
8372;DHT22;4223;48.724;8.982;2022-11-20T00:26:04;3.50;99.90
8372;DHT22;4223;48.724;8.982;2022-11-20T00:28:31;3.60;99.90
8372;DHT22;4223;48.724;8.982;2022-11-20T00:31:04;3.60;99.90
8372;DHT22;4223;48.724;8.982;2022-11-20T00:33:31;3.60;99.90
8372;DHT22;4223;48.724;8.982;2022-11-20T00:36:01;3.60;99.90
8372;DHT22;4223;48.724;8.982;2022-11-20T00:38:29;3.60;99.90
8372;DHT22;4223;48.724;8.982;2022-11-20T00:40:56;3.70;99.90
8372;DHT22;4223;48.724;8.982;2022-11-20T00:43:24;3.60;99.90
8372;DHT22;4223;48.724;8.982;2022-11-20T00:45:55;3.60;99.90
8372;DHT22;4223;48.724;8.982;2022-11-20T00:48:24;3.60;99.90
8372;DHT22;4223;48.724;8.982;2022-11-20T00:50:50;3.70;99.90
8372;DHT22;4223;48.724;8.982;2022-11-20T00:53:17;3.60;99.90
8372;DHT22;4223;48.724;8.982;2022-11-20T00:55:52;3.60;99.90
8372;DHT22;4223;48.724;8.982;2022-11-20T00:58:19;3.60;99.90
8372;DHT22;4223;48.724;8.982;2022-11-20T01:00:46;3.60;99.90
8372;DHT22;4223;48.724;8.982;2022-11-20T01:03:13;3.60;99.90
8372;DHT22;4223;48.724;8.982;2022-11-20T01:05:41;3.50;99.90
8372;DHT22;4223;48.724;8.982;2022-11-20T01:08:08;3.50;99.90
8372;DHT22;4223;48.724;8.982;2022-11-20T01:10:35;3.40;99.90
8372;DHT22;4223;48.724;8.982;2022-11-20T01:13:02;3.40;99.90
8372;DHT22;4223;48.724;8.982;2022-11-20T01:15:46;3.40;99.90
8372;DHT22;4223;48.724;8.982;2022-11-20T01:18:13;3.30;99.90
8372;DHT22;4223;48.724;8.982;2022-11-20T01:20:41;3.20;99.90
8372;DHT22;4223;48.724;8.982;2022-11-20T01:23:08;3.10;99.90
8372;DHT22;4223;48.724;8.982;2022-11-20T01:25:35;3.00;99.90
8372;DHT22;4223;48.724;8.982;2022-11-20T01:28:02;3.00;99.90
8372;DHT22;4223;48.724;8.982;2022-11-20T01:30:29;2.90;99.90
8372;DHT22;4223;48.724;8.982;2022-11-20T01:32:55;2.90;99.90
8372;DHT22;4223;48.724;8.982;2022-11-20T01:35:22;2.80;99.90
8372;DHT22;4223;48.724;8.982;2022-11-20T01:37:51;2.70;99.90
8372;DHT22;4223;48.724;8.982;2022-11-20T01:40:18;2.70;99.90
8372;DHT22;4223;48.724;8.982;2022-11-20T01:42:47;2.60;99.90
8372;DHT22;4223;48.724;8.982;2022-11-20T01:45:58;2.60;99.90
8372;DHT22;4223;48.724;8.982;2022-11-20T01:48:29;2.60;99.90
8372;DHT22;4223;48.724;8.982;2022-11-20T01:50:58;2.60;99.90
8372;DHT22;4223;48.724;8.982;2022-11-20T01:53:30;2.70;99.90
8372;DHT22;4223;48.724;8.982;2022-11-20T01:56:00;2.70;99.90
8372;DHT22;4223;48.724;8.982;2022-11-20T01:58:30;2.80;99.90
8372;DHT22;4223;48.724;8.982;2022-11-20T02:00:58;2.80;99.90
8372;DHT22;4223;48.724;8.982;2022-11-20T02:03:26;2.80;99.90
8372;DHT22;4223;48.724;8.982;2022-11-20T02:05:59;2.80;99.90
8372;DHT22;4223;48.724;8.982;2022-11-20T02:08:29;2.80;99.90
8372;DHT22;4223;48.724;8.982;2022-11-20T02:10:56;2.70;99.90
8372;DHT22;4223;48.724;8.982;2022-11-20T02:13:23;2.70;99.90
8372;DHT22;4223;48.724;8.982;2022-11-20T02:16:15;2.70;99.90
8372;DHT22;4223;48.724;8.982;2022-11-20T02:18:44;2.70;99.90
8372;DHT22;4223;48.724;8.982;2022-11-20T02:21:27;2.70;99.90
8372;DHT22;4223;48.724;8.982;2022-11-20T02:24:02;2.70;99.90
8372;DHT22;4223;48.724;8.982;2022-11-20T02:26:31;2.70;99.90
8372;DHT22;4223;48.724;8.982;2022-11-20T02:29:00;2.70;99.90
8372;DHT22;4223;48.724;8.982;2022-11-20T02:31:28;2.80;99.90
8372;DHT22;4223;48.724;8.982;2022-11-20T02:33:56;2.80;99.90
8372;DHT22;4223;48.724;8.982;2022-11-20T02:36:26;2.70;99.90
8372;DHT22;4223;48.724;8.982;2022-11-20T02:38:53;2.70;99.90
8372;DHT22;4223;48.724;8.982;2022-11-20T02:41:21;2.70;99.90
8372;DHT22;4223;48.724;8.982;2022-11-20T02:43:48;2.70;99.90
8372;DHT22;4223;48.724;8.982;2022-11-20T02:46:15;2.80;99.90
8372;DHT22;4223;48.724;8.982;2022-11-20T02:48:42;2.90;99.90
8372;DHT22;4223;48.724;8.982;2022-11-20T02:51:09;2.90;99.90
8372;DHT22;4223;48.724;8.982;2022-11-20T02:53:35;3.00;99.90
8372;DHT22;4223;48.724;8.982;2022-11-20T02:56:03;3.00;99.90
8372;DHT22;4223;48.724;8.982;2022-11-20T02:58:31;3.00;99.90
8372;DHT22;4223;48.724;8.982;2022-11-20T03:00:58;3.00;99.90
8372;DHT22;4223;48.724;8.982;2022-11-20T03:03:24;3.00;99.90
8372;DHT22;4223;48.724;8.982;2022-11-20T03:05:51;3.00;99.90
8372;DHT22;4223;48.724;8.982;2022-11-20T03:08:18;3.00;99.90
8372;DHT22;4223;48.724;8.982;2022-11-20T03:10:45;3.10;99.90
8372;DHT22;4223;48.724;8.982;2022-11-20T03:13:12;3.10;99.90
8372;DHT22;4223;48.724;8.982;2022-11-20T03:15:40;3.00;99.90
8372;DHT22;4223;48.724;8.982;2022-11-20T03:18:07;3.00;99.90
8372;DHT22;4223;48.724;8.982;2022-11-20T03:20:34;3.00;99.90
8372;DHT22;4223;48.724;8.982;2022-11-20T03:23:01;2.90;99.90
8372;DHT22;4223;48.724;8.982;2022-11-20T03:25:28;2.90;99.90
8372;DHT22;4223;48.724;8.982;2022-11-20T03:27:55;2.90;99.90
8372;DHT22;4223;48.724;8.982;2022-11-20T03:30:22;2.90;99.90
8372;DHT22;4223;48.724;8.982;2022-11-20T03:32:52;2.90;99.90
8372;DHT22;4223;48.724;8.982;2022-11-20T03:35:20;2.80;99.90
8372;DHT22;4223;48.724;8.982;2022-11-20T03:37:47;2.80;99.90
8372;DHT22;4223;48.724;8.982;2022-11-20T03:40:14;2.80;99.90
8372;DHT22;4223;48.724;8.982;2022-11-20T03:42:40;2.70;99.90
8372;DHT22;4223;48.724;8.982;2022-11-20T03:45:14;2.70;99.90
8372;DHT22;4223;48.724;8.982;2022-11-20T03:47:41;2.70;99.90
8372;DHT22;4223;48.724;8.982;2022-11-20T03:50:11;2.70;99.90
8372;DHT22;4223;48.724;8.982;2022-11-20T03:52:39;2.70;99.90
8372;DHT22;4223;48.724;8.982;2022-11-20T03:55:06;2.60;99.90
8372;DHT22;4223;48.724;8.982;2022-11-20T03:57:33;2.70;99.90
8372;DHT22;4223;48.724;8.982;2022-11-20T04:00:00;2.60;99.90
8372;DHT22;4223;48.724;8.982;2022-11-20T04:02:27;2.70;99.90
8372;DHT22;4223;48.724;8.982;2022-11-20T04:04:54;2.70;99.90
8372;DHT22;4223;48.724;8.982;2022-11-20T04:07:22;2.70;99.90
8372;DHT22;4223;48.724;8.982;2022-11-20T04:09:49;2.60;99.90
8372;DHT22;4223;48.724;8.982;2022-11-20T04:12:15;2.60;99.90
8372;DHT22;4223;48.724;8.982;2022-11-20T04:14:42;2.60;99.90
8372;DHT22;4223;48.724;8.982;2022-11-20T04:17:09;2.70;99.90
8372;DHT22;4223;48.724;8.982;2022-11-20T04:19:36;2.70;99.90
8372;DHT22;4223;48.724;8.982;2022-11-20T04:22:02;2.80;99.90
8372;DHT22;4223;48.724;8.982;2022-11-20T04:24:31;2.80;99.90
8372;DHT22;4223;48.724;8.982;2022-11-20T04:26:57;2.80;99.90
8372;DHT22;4223;48.724;8.982;2022-11-20T04:29:24;2.80;99.90
8372;DHT22;4223;48.724;8.982;2022-11-20T04:31:51;2.80;99.90
8372;DHT22;4223;48.724;8.982;2022-11-20T04:34:18;2.90;99.90
8372;DHT22;4223;48.724;8.982;2022-11-20T04:36:45;2.90;99.90
8372;DHT22;4223;48.724;8.982;2022-11-20T04:39:13;2.90;99.90
8372;DHT22;4223;48.724;8.982;2022-11-20T04:41:42;2.90;99.90
8372;DHT22;4223;48.724;8.982;2022-11-20T04:44:09;2.90;99.90
8372;DHT22;4223;48.724;8.982;2022-11-20T04:46:37;3.00;99.90
8372;DHT22;4223;48.724;8.982;2022-11-20T04:49:05;3.00;99.90
8372;DHT22;4223;48.724;8.982;2022-11-20T04:51:32;3.60;99.90
8372;DHT22;4223;48.724;8.982;2022-11-20T04:53:59;3.10;99.90
8372;DHT22;4223;48.724;8.982;2022-11-20T04:56:26;3.10;99.90
8372;DHT22;4223;48.724;8.982;2022-11-20T04:58:55;3.10;99.90
8372;DHT22;4223;48.724;8.982;2022-11-20T05:01:23;3.20;99.90
8372;DHT22;4223;48.724;8.982;2022-11-20T05:03:50;3.20;99.90
8372;DHT22;4223;48.724;8.982;2022-11-20T05:06:19;3.20;99.90
8372;DHT22;4223;48.724;8.982;2022-11-20T05:08:46;3.30;99.90
8372;DHT22;4223;48.724;8.982;2022-11-20T05:11:15;3.30;99.90
8372;DHT22;4223;48.724;8.982;2022-11-20T05:13:42;3.30;99.90
8372;DHT22;4223;48.724;8.982;2022-11-20T05:16:12;3.40;99.90
8372;DHT22;4223;48.724;8.982;2022-11-20T05:18:39;3.40;99.90
8372;DHT22;4223;48.724;8.982;2022-11-20T05:21:07;3.40;99.90
8372;DHT22;4223;48.724;8.982;2022-11-20T05:23:35;3.40;99.90
8372;DHT22;4223;48.724;8.982;2022-11-20T05:26:02;3.50;99.90
8372;DHT22;4223;48.724;8.982;2022-11-20T05:28:30;3.50;99.90
8372;DHT22;4223;48.724;8.982;2022-11-20T05:31:04;3.50;99.90
8372;DHT22;4223;48.724;8.982;2022-11-20T05:33:33;3.50;99.90
8372;DHT22;4223;48.724;8.982;2022-11-20T05:36:00;3.50;99.90
8372;DHT22;4223;48.724;8.982;2022-11-20T05:38:27;3.40;99.90
8372;DHT22;4223;48.724;8.982;2022-11-20T05:40:53;3.50;99.90
8372;DHT22;4223;48.724;8.982;2022-11-20T05:43:20;3.50;99.90
8372;DHT22;4223;48.724;8.982;2022-11-20T05:45:52;3.50;99.90
8372;DHT22;4223;48.724;8.982;2022-11-20T05:48:19;3.50;99.90
8372;DHT22;4223;48.724;8.982;2022-11-20T05:50:48;3.50;99.90
8372;DHT22;4223;48.724;8.982;2022-11-20T05:53:14;3.60;99.90
8372;DHT22;4223;48.724;8.982;2022-11-20T05:55:41;3.50;99.90
8372;DHT22;4223;48.724;8.982;2022-11-20T05:58:08;3.50;99.90
8372;DHT22;4223;48.724;8.982;2022-11-20T06:00:35;3.60;99.90
8372;DHT22;4223;48.724;8.982;2022-11-20T06:03:03;3.60;99.90
8372;DHT22;4223;48.724;8.982;2022-11-20T06:05:30;3.60;99.90
8372;DHT22;4223;48.724;8.982;2022-11-20T06:08:00;3.60;99.90
8372;DHT22;4223;48.724;8.982;2022-11-20T06:10:27;3.60;99.90
8372;DHT22;4223;48.724;8.982;2022-11-20T06:12:57;3.60;99.90
8372;DHT22;4223;48.724;8.982;2022-11-20T06:15:24;3.70;99.90
8372;DHT22;4223;48.724;8.982;2022-11-20T06:17:53;3.70;99.90
8372;DHT22;4223;48.724;8.982;2022-11-20T06:20:20;3.70;99.90
8372;DHT22;4223;48.724;8.982;2022-11-20T06:22:47;3.80;99.90
8372;DHT22;4223;48.724;8.982;2022-11-20T06:25:15;3.80;99.90
8372;DHT22;4223;48.724;8.982;2022-11-20T06:27:42;3.80;99.90
8372;DHT22;4223;48.724;8.982;2022-11-20T06:30:10;3.90;99.90
8372;DHT22;4223;48.724;8.982;2022-11-20T06:32:37;3.70;99.90
8372;DHT22;4223;48.724;8.982;2022-11-20T06:35:04;4.00;99.90
8372;DHT22;4223;48.724;8.982;2022-11-20T06:37:31;4.00;99.90
8372;DHT22;4223;48.724;8.982;2022-11-20T06:40:01;4.00;99.90
8372;DHT22;4223;48.724;8.982;2022-11-20T06:42:29;4.00;99.90
8372;DHT22;4223;48.724;8.982;2022-11-20T06:44:56;4.00;99.90
8372;DHT22;4223;48.724;8.982;2022-11-20T06:47:22;4.00;99.90
8372;DHT22;4223;48.724;8.982;2022-11-20T06:49:49;4.00;99.90
8372;DHT22;4223;48.724;8.982;2022-11-20T06:52:16;4.00;99.90
8372;DHT22;4223;48.724;8.982;2022-11-20T06:54:43;4.00;99.90
8372;DHT22;4223;48.724;8.982;2022-11-20T06:57:10;4.00;99.90
8372;DHT22;4223;48.724;8.982;2022-11-20T06:59:41;4.00;99.90
8372;DHT22;4223;48.724;8.982;2022-11-20T07:02:09;4.10;99.90
8372;DHT22;4223;48.724;8.982;2022-11-20T07:04:37;4.10;99.90
8372;DHT22;4223;48.724;8.982;2022-11-20T07:07:04;4.10;99.90
8372;DHT22;4223;48.724;8.982;2022-11-20T07:09:31;4.10;99.90
8372;DHT22;4223;48.724;8.982;2022-11-20T07:11:58;4.10;99.90
8372;DHT22;4223;48.724;8.982;2022-11-20T07:14:26;4.10;99.90
8372;DHT22;4223;48.724;8.982;2022-11-20T07:16:54;4.10;99.90
8372;DHT22;4223;48.724;8.982;2022-11-20T07:19:21;4.10;99.90
8372;DHT22;4223;48.724;8.982;2022-11-20T07:21:49;4.10;99.90
8372;DHT22;4223;48.724;8.982;2022-11-20T07:24:16;4.10;99.90
8372;DHT22;4223;48.724;8.982;2022-11-20T07:26:46;4.10;99.90
8372;DHT22;4223;48.724;8.982;2022-11-20T07:29:13;4.00;99.90
8372;DHT22;4223;48.724;8.982;2022-11-20T07:31:39;4.10;99.90
8372;DHT22;4223;48.724;8.982;2022-11-20T07:34:08;4.10;99.90
8372;DHT22;4223;48.724;8.982;2022-11-20T07:36:35;4.10;99.90
8372;DHT22;4223;48.724;8.982;2022-11-20T07:39:02;4.10;99.90
8372;DHT22;4223;48.724;8.982;2022-11-20T07:41:28;4.20;99.90
8372;DHT22;4223;48.724;8.982;2022-11-20T07:43:55;4.20;99.90
8372;DHT22;4223;48.724;8.982;2022-11-20T07:46:22;4.30;99.90
8372;DHT22;4223;48.724;8.982;2022-11-20T07:48:49;4.30;99.90
8372;DHT22;4223;48.724;8.982;2022-11-20T07:51:17;4.40;99.90
8372;DHT22;4223;48.724;8.982;2022-11-20T07:53:44;4.50;99.90
8372;DHT22;4223;48.724;8.982;2022-11-20T07:56:12;4.50;99.90
8372;DHT22;4223;48.724;8.982;2022-11-20T07:58:40;4.60;99.90
8372;DHT22;4223;48.724;8.982;2022-11-20T08:01:07;4.70;99.90
8372;DHT22;4223;48.724;8.982;2022-11-20T08:03:35;4.80;99.90
8372;DHT22;4223;48.724;8.982;2022-11-20T08:06:03;4.80;99.90
8372;DHT22;4223;48.724;8.982;2022-11-20T08:08:32;4.80;99.90
8372;DHT22;4223;48.724;8.982;2022-11-20T08:10:59;4.90;99.90
8372;DHT22;4223;48.724;8.982;2022-11-20T08:13:53;4.90;99.90
8372;DHT22;4223;48.724;8.982;2022-11-20T08:16:37;5.00;99.90
8372;DHT22;4223;48.724;8.982;2022-11-20T08:19:04;5.00;99.90
8372;DHT22;4223;48.724;8.982;2022-11-20T08:21:31;5.10;99.90
8372;DHT22;4223;48.724;8.982;2022-11-20T08:24:00;5.20;99.90
8372;DHT22;4223;48.724;8.982;2022-11-20T08:26:27;5.10;99.90
8372;DHT22;4223;48.724;8.982;2022-11-20T08:28:54;5.20;99.90
8372;DHT22;4223;48.724;8.982;2022-11-20T08:31:22;5.20;99.90
8372;DHT22;4223;48.724;8.982;2022-11-20T08:33:49;5.30;99.90
8372;DHT22;4223;48.724;8.982;2022-11-20T08:36:17;5.30;99.90
8372;DHT22;4223;48.724;8.982;2022-11-20T08:38:47;5.40;99.90
8372;DHT22;4223;48.724;8.982;2022-11-20T08:41:16;5.50;99.90
8372;DHT22;4223;48.724;8.982;2022-11-20T08:43:54;5.50;99.90
8372;DHT22;4223;48.724;8.982;2022-11-20T08:46:22;5.60;99.90
8372;DHT22;4223;48.724;8.982;2022-11-20T08:48:49;5.60;99.90
8372;DHT22;4223;48.724;8.982;2022-11-20T08:51:16;5.70;99.90
8372;DHT22;4223;48.724;8.982;2022-11-20T08:53:43;5.70;99.90
8372;DHT22;4223;48.724;8.982;2022-11-20T08:56:10;5.60;99.90
8372;DHT22;4223;48.724;8.982;2022-11-20T08:58:40;5.70;99.90
8372;DHT22;4223;48.724;8.982;2022-11-20T09:01:07;5.70;99.90
8372;DHT22;4223;48.724;8.982;2022-11-20T09:03:34;5.60;99.90
8372;DHT22;4223;48.724;8.982;2022-11-20T09:06:02;5.60;99.90
8372;DHT22;4223;48.724;8.982;2022-11-20T09:08:30;5.60;99.90
8372;DHT22;4223;48.724;8.982;2022-11-20T09:10:58;5.50;99.90
8372;DHT22;4223;48.724;8.982;2022-11-20T09:13:29;5.50;99.90
8372;DHT22;4223;48.724;8.982;2022-11-20T09:15:59;5.50;99.90
8372;DHT22;4223;48.724;8.982;2022-11-20T09:18:27;5.50;99.90
8372;DHT22;4223;48.724;8.982;2022-11-20T09:20:57;5.60;99.90
8372;DHT22;4223;48.724;8.982;2022-11-20T09:23:24;5.60;99.90
8372;DHT22;4223;48.724;8.982;2022-11-20T09:25:51;5.50;99.90
8372;DHT22;4223;48.724;8.982;2022-11-20T09:28:21;5.50;99.90
8372;DHT22;4223;48.724;8.982;2022-11-20T09:30:48;5.70;99.90
8372;DHT22;4223;48.724;8.982;2022-11-20T09:33:16;5.40;99.90
8372;DHT22;4223;48.724;8.982;2022-11-20T09:35:43;5.50;99.90
8372;DHT22;4223;48.724;8.982;2022-11-20T09:38:10;5.40;99.90
8372;DHT22;4223;48.724;8.982;2022-11-20T09:40:40;5.40;99.90
8372;DHT22;4223;48.724;8.982;2022-11-20T09:43:14;5.40;99.90
8372;DHT22;4223;48.724;8.982;2022-11-20T09:46:04;5.40;99.90
8372;DHT22;4223;48.724;8.982;2022-11-20T09:48:54;5.40;99.90
8372;DHT22;4223;48.724;8.982;2022-11-20T09:51:31;5.50;99.90
8372;DHT22;4223;48.724;8.982;2022-11-20T09:54:09;5.50;99.90
8372;DHT22;4223;48.724;8.982;2022-11-20T09:56:42;5.50;99.90
8372;DHT22;4223;48.724;8.982;2022-11-20T09:59:20;5.50;99.90
8372;DHT22;4223;48.724;8.982;2022-11-20T10:01:50;5.50;99.90
8372;DHT22;4223;48.724;8.982;2022-11-20T10:04:20;5.50;99.90
8372;DHT22;4223;48.724;8.982;2022-11-20T10:06:51;5.50;99.90
8372;DHT22;4223;48.724;8.982;2022-11-20T10:09:22;5.50;99.90
8372;DHT22;4223;48.724;8.982;2022-11-20T10:11:59;5.70;99.90
8372;DHT22;4223;48.724;8.982;2022-11-20T10:14:38;5.50;99.90
8372;DHT22;4223;48.724;8.982;2022-11-20T10:17:22;5.60;99.90
8372;DHT22;4223;48.724;8.982;2022-11-20T10:20:10;5.70;99.90
8372;DHT22;4223;48.724;8.982;2022-11-20T10:22:51;5.60;99.90
8372;DHT22;4223;48.724;8.982;2022-11-20T10:25:24;5.60;99.90
8372;DHT22;4223;48.724;8.982;2022-11-20T10:28:07;5.60;99.90
8372;DHT22;4223;48.724;8.982;2022-11-20T10:30:39;5.60;99.90
8372;DHT22;4223;48.724;8.982;2022-11-20T10:33:13;5.70;99.90
8372;DHT22;4223;48.724;8.982;2022-11-20T10:35:45;5.60;99.90
8372;DHT22;4223;48.724;8.982;2022-11-20T10:38:18;5.60;99.90
8372;DHT22;4223;48.724;8.982;2022-11-20T10:40:48;5.60;99.90
8372;DHT22;4223;48.724;8.982;2022-11-20T10:43:20;5.50;99.90
8372;DHT22;4223;48.724;8.982;2022-11-20T10:45:52;5.50;99.90
8372;DHT22;4223;48.724;8.982;2022-11-20T10:48:23;5.50;99.90
8372;DHT22;4223;48.724;8.982;2022-11-20T10:51:17;5.50;99.90
8372;DHT22;4223;48.724;8.982;2022-11-20T10:53:58;5.50;99.90
8372;DHT22;4223;48.724;8.982;2022-11-20T10:56:33;5.50;99.90
8372;DHT22;4223;48.724;8.982;2022-11-20T10:59:33;5.70;99.90
8372;DHT22;4223;48.724;8.982;2022-11-20T11:02:12;5.90;99.90
8372;DHT22;4223;48.724;8.982;2022-11-20T11:04:44;6.20;99.90
8372;DHT22;4223;48.724;8.982;2022-11-20T11:07:15;6.30;99.90
8372;DHT22;4223;48.724;8.982;2022-11-20T11:09:44;6.40;99.90
8372;DHT22;4223;48.724;8.982;2022-11-20T11:12:13;6.40;99.90
8372;DHT22;4223;48.724;8.982;2022-11-20T11:14:49;6.40;99.90
8372;DHT22;4223;48.724;8.982;2022-11-20T11:17:22;6.50;99.90
8372;DHT22;4223;48.724;8.982;2022-11-20T11:20:16;6.50;99.90
8372;DHT22;4223;48.724;8.982;2022-11-20T11:22:47;6.70;99.90
8372;DHT22;4223;48.724;8.982;2022-11-20T11:25:35;6.80;97.80
8372;DHT22;4223;48.724;8.982;2022-11-20T11:28:17;7.70;93.70
8372;DHT22;4223;48.724;8.982;2022-11-20T11:30:46;9.20;27.10
8372;DHT22;4223;48.724;8.982;2022-11-20T11:33:19;10.40;1.00
8372;DHT22;4223;48.724;8.982;2022-11-20T11:35:48;11.20;1.00
8372;DHT22;4223;48.724;8.982;2022-11-20T11:38:22;11.70;99.90
8372;DHT22;4223;48.724;8.982;2022-11-20T11:40:49;12.20;1.00
8372;DHT22;4223;48.724;8.982;2022-11-20T11:43:21;12.00;99.90
8372;DHT22;4223;48.724;8.982;2022-11-20T11:46:19;11.40;99.90
8372;DHT22;4223;48.724;8.982;2022-11-20T11:48:56;10.40;99.90
8372;DHT22;4223;48.724;8.982;2022-11-20T11:51:25;10.10;99.90
8372;DHT22;4223;48.724;8.982;2022-11-20T11:53:57;10.50;99.90
8372;DHT22;4223;48.724;8.982;2022-11-20T11:56:25;10.90;99.90
8372;DHT22;4223;48.724;8.982;2022-11-20T11:58:52;10.40;99.90
8372;DHT22;4223;48.724;8.982;2022-11-20T12:01:26;10.20;99.90
8372;DHT22;4223;48.724;8.982;2022-11-20T12:04:02;10.40;99.90
8372;DHT22;4223;48.724;8.982;2022-11-20T12:06:31;10.50;1.00
8372;DHT22;4223;48.724;8.982;2022-11-20T12:09:03;9.90;99.90
8372;DHT22;4223;48.724;8.982;2022-11-20T12:11:34;9.70;89.80
8372;DHT22;4223;48.724;8.982;2022-11-20T12:14:11;10.00;98.20
8372;DHT22;4223;48.724;8.982;2022-11-20T12:16:40;10.40;99.90
8372;DHT22;4223;48.724;8.982;2022-11-20T12:19:11;10.70;1.00
8372;DHT22;4223;48.724;8.982;2022-11-20T12:21:45;10.80;1.00
8372;DHT22;4223;48.724;8.982;2022-11-20T12:24:34;10.40;1.00
8372;DHT22;4223;48.724;8.982;2022-11-20T12:30:13;10.50;1.00
8372;DHT22;4223;48.724;8.982;2022-11-20T12:33:03;10.60;1.00
8372;DHT22;4223;48.724;8.982;2022-11-20T12:35:44;10.60;1.00
8372;DHT22;4223;48.724;8.982;2022-11-20T12:38:33;10.50;1.00
8372;DHT22;4223;48.724;8.982;2022-11-20T12:41:12;10.50;1.00
8372;DHT22;4223;48.724;8.982;2022-11-20T12:44:16;10.30;99.90
8372;DHT22;4223;48.724;8.982;2022-11-20T12:47:12;10.30;1.00
8372;DHT22;4223;48.724;8.982;2022-11-20T12:49:48;9.60;1.00
8372;DHT22;4223;48.724;8.982;2022-11-20T12:52:38;9.00;1.00
8372;DHT22;4223;48.724;8.982;2022-11-20T12:55:21;8.40;99.90
8372;DHT22;4223;48.724;8.982;2022-11-20T12:57:54;8.40;99.90
8372;DHT22;4223;48.724;8.982;2022-11-20T13:00:24;8.80;1.00
8372;DHT22;4223;48.724;8.982;2022-11-20T13:03:03;9.00;1.00
8372;DHT22;4223;48.724;8.982;2022-11-20T13:05:38;9.10;99.90
8372;DHT22;4223;48.724;8.982;2022-11-20T13:08:18;8.80;1.00
8372;DHT22;4223;48.724;8.982;2022-11-20T13:10:49;8.60;1.00
8372;DHT22;4223;48.724;8.982;2022-11-20T13:13:23;8.30;99.90
8372;DHT22;4223;48.724;8.982;2022-11-20T13:15:58;8.10;99.90
8372;DHT22;4223;48.724;8.982;2022-11-20T13:18:27;8.00;1.00
8372;DHT22;4223;48.724;8.982;2022-11-20T13:20:55;8.30;1.00
8372;DHT22;4223;48.724;8.982;2022-11-20T13:23:26;8.60;99.90
8372;DHT22;4223;48.724;8.982;2022-11-20T13:26:04;8.70;1.00
8372;DHT22;4223;48.724;8.982;2022-11-20T13:28:33;8.90;99.90
8372;DHT22;4223;48.724;8.982;2022-11-20T13:31:01;8.90;1.00
8372;DHT22;4223;48.724;8.982;2022-11-20T13:33:30;8.70;99.90
8372;DHT22;4223;48.724;8.982;2022-11-20T13:36:00;8.40;1.00
8372;DHT22;4223;48.724;8.982;2022-11-20T13:38:27;8.20;1.00
8372;DHT22;4223;48.724;8.982;2022-11-20T13:40:56;7.80;1.00
8372;DHT22;4223;48.724;8.982;2022-11-20T13:43:32;7.60;1.00
8372;DHT22;4223;48.724;8.982;2022-11-20T13:46:04;7.50;23.90
8372;DHT22;4223;48.724;8.982;2022-11-20T13:48:32;7.30;35.00
8372;DHT22;4223;48.724;8.982;2022-11-20T13:51:23;7.00;43.90
8372;DHT22;4223;48.724;8.982;2022-11-20T13:54:18;6.80;58.20
8372;DHT22;4223;48.724;8.982;2022-11-20T13:56:54;6.80;66.50
8372;DHT22;4223;48.724;8.982;2022-11-20T13:59:43;6.60;56.40
8372;DHT22;4223;48.724;8.982;2022-11-20T14:02:15;6.80;91.40
8372;DHT22;4223;48.724;8.982;2022-11-20T14:04:45;7.00;47.40
8372;DHT22;4223;48.724;8.982;2022-11-20T14:07:12;7.10;1.00
8372;DHT22;4223;48.724;8.982;2022-11-20T14:09:50;7.00;12.90
8372;DHT22;4223;48.724;8.982;2022-11-20T14:12:19;6.80;13.00
8372;DHT22;4223;48.724;8.982;2022-11-20T14:14:49;6.70;12.00
8372;DHT22;4223;48.724;8.982;2022-11-20T14:17:20;6.50;19.90
8372;DHT22;4223;48.724;8.982;2022-11-20T14:19:49;6.50;33.00
8372;DHT22;4223;48.724;8.982;2022-11-20T14:22:19;6.50;25.50
8372;DHT22;4223;48.724;8.982;2022-11-20T14:24:46;6.40;19.80
8372;DHT22;4223;48.724;8.982;2022-11-20T14:27:15;6.40;17.30
8372;DHT22;4223;48.724;8.982;2022-11-20T14:29:44;6.40;17.30
8372;DHT22;4223;48.724;8.982;2022-11-20T14:32:15;6.40;29.10
8372;DHT22;4223;48.724;8.982;2022-11-20T14:34:46;6.40;24.20
8372;DHT22;4223;48.724;8.982;2022-11-20T14:37:18;6.40;27.20
8372;DHT22;4223;48.724;8.982;2022-11-20T14:39:50;6.30;42.40
8372;DHT22;4223;48.724;8.982;2022-11-20T14:42:20;6.40;30.10
8372;DHT22;4223;48.724;8.982;2022-11-20T14:44:48;6.30;48.80
8372;DHT22;4223;48.724;8.982;2022-11-20T14:47:19;6.30;50.30
8372;DHT22;4223;48.724;8.982;2022-11-20T14:49:49;6.20;49.60
8372;DHT22;4223;48.724;8.982;2022-11-20T14:52:18;6.20;56.70
8372;DHT22;4223;48.724;8.982;2022-11-20T14:54:46;6.20;71.10
8372;DHT22;4223;48.724;8.982;2022-11-20T14:57:25;6.20;72.50
8372;DHT22;4223;48.724;8.982;2022-11-20T15:00:05;6.10;76.00
8372;DHT22;4223;48.724;8.982;2022-11-20T15:02:33;6.10;80.30
8372;DHT22;4223;48.724;8.982;2022-11-20T15:05:02;6.10;77.90
8372;DHT22;4223;48.724;8.982;2022-11-20T15:07:30;5.90;78.80
8372;DHT22;4223;48.724;8.982;2022-11-20T15:10:03;5.80;81.10
8372;DHT22;4223;48.724;8.982;2022-11-20T15:12:31;5.80;88.50
8372;DHT22;4223;48.724;8.982;2022-11-20T15:14:59;5.70;89.80
8372;DHT22;4223;48.724;8.982;2022-11-20T15:17:27;5.60;91.20
8372;DHT22;4223;48.724;8.982;2022-11-20T15:19:54;5.50;92.70
8372;DHT22;4223;48.724;8.982;2022-11-20T15:22:22;5.50;94.00
8372;DHT22;4223;48.724;8.982;2022-11-20T15:24:49;5.50;95.50
8372;DHT22;4223;48.724;8.982;2022-11-20T15:27:16;5.40;94.60
8372;DHT22;4223;48.724;8.982;2022-11-20T15:29:43;5.40;96.60
8372;DHT22;4223;48.724;8.982;2022-11-20T15:32:10;5.30;97.00
8372;DHT22;4223;48.724;8.982;2022-11-20T15:34:36;5.20;97.60
8372;DHT22;4223;48.724;8.982;2022-11-20T15:37:03;5.20;98.60
8372;DHT22;4223;48.724;8.982;2022-11-20T15:39:31;5.10;98.70
8372;DHT22;4223;48.724;8.982;2022-11-20T15:41:58;5.10;99.90
8372;DHT22;4223;48.724;8.982;2022-11-20T15:44:25;5.00;99.90
8372;DHT22;4223;48.724;8.982;2022-11-20T15:46:52;5.00;99.90
8372;DHT22;4223;48.724;8.982;2022-11-20T15:49:19;4.90;99.90
8372;DHT22;4223;48.724;8.982;2022-11-20T15:51:49;4.90;99.90
8372;DHT22;4223;48.724;8.982;2022-11-20T15:54:19;4.90;99.90
8372;DHT22;4223;48.724;8.982;2022-11-20T15:56:47;4.80;99.90
8372;DHT22;4223;48.724;8.982;2022-11-20T15:59:14;4.80;99.90
8372;DHT22;4223;48.724;8.982;2022-11-20T16:01:42;4.80;99.90
8372;DHT22;4223;48.724;8.982;2022-11-20T16:04:10;4.80;99.90
8372;DHT22;4223;48.724;8.982;2022-11-20T16:06:37;4.80;99.90
8372;DHT22;4223;48.724;8.982;2022-11-20T16:09:04;4.80;99.90
8372;DHT22;4223;48.724;8.982;2022-11-20T16:11:31;4.90;99.90
8372;DHT22;4223;48.724;8.982;2022-11-20T16:13:59;4.90;99.90
8372;DHT22;4223;48.724;8.982;2022-11-20T16:16:44;4.90;99.90
8372;DHT22;4223;48.724;8.982;2022-11-20T16:19:11;4.90;99.90
8372;DHT22;4223;48.724;8.982;2022-11-20T16:21:38;4.90;99.90
8372;DHT22;4223;48.724;8.982;2022-11-20T16:24:08;4.90;99.90
8372;DHT22;4223;48.724;8.982;2022-11-20T16:26:35;4.90;99.90
8372;DHT22;4223;48.724;8.982;2022-11-20T16:29:05;4.80;99.90
8372;DHT22;4223;48.724;8.982;2022-11-20T16:31:32;4.90;99.90
8372;DHT22;4223;48.724;8.982;2022-11-20T16:34:02;4.90;99.90
8372;DHT22;4223;48.724;8.982;2022-11-20T16:36:29;4.90;99.90
8372;DHT22;4223;48.724;8.982;2022-11-20T16:38:58;4.90;99.90
8372;DHT22;4223;48.724;8.982;2022-11-20T16:41:26;4.90;99.90